Terminal Aerodrome Forecast
Issued by NWS Corpus Christi, TX

Home | Current Version | Previous Version | Text Only | Print | Product List | Glossary On
Versions: 1 2 3 4 5 6 7 8 9 10 11 12 13 14 15
000
FTUS44 KCRP 301100 AAA
TAFVCT
TAF AMD
KVCT 301158Z 3012/0112 01004KT 1/4SM FG VV002
     FM301330 02005KT 5SM BR SCT015
     FM301400 04005KT P6SM SCT025
     FM301800 09009KT P6SM VCTS SCT035CB
     FM302200 11010KT P6SM SCT040
     FM010900 12005KT 5SM BR SCT012=

USA.gov is the U.S. government's official web portal to all federal, state and local government web resources and services.